Time;durP1;ratioP1;P1;durP2;ratioP2;P2;SDS_P1;SDS_P2;PMS_P1;PMS_P2;Temp;Humidity;BMP_temperature;BMP_pressure;BME280_temperature;BME280_humidity;BME280_pressure;Samples;Min_cycle;Max_cycle;Signal;HPM_P1;HPM_P2
2024/01/07 00:02:14;;;;;;;51.70;47.92;;;;;;;6.80;66.24;101628.84;5031514;28;20076;-75
2024/01/07 00:04:40;;;;;;;48.05;45.33;;;;;;;6.77;66.29;101621.19;5028370;28;20038;-75
2024/01/07 00:07:06;;;;;;;44.83;42.38;;;;;;;6.77;66.33;101623.03;5021567;28;20038;-75
2024/01/07 00:09:31;;;;;;;44.03;41.80;;;;;;;6.77;66.60;101641.84;5014591;28;20038;-76
2024/01/07 00:11:57;;;;;;;46.10;43.38;;;;;;;6.77;66.73;101631.94;5019342;28;20045;-75
2024/01/07 00:14:22;;;;;;;47.67;44.90;;;;;;;6.77;66.47;101642.66;5017353;28;20113;-75
2024/01/07 00:16:47;;;;;;;51.97;49.05;;;;;;;6.75;66.41;101643.88;5013970;28;20038;-75
2024/01/07 00:19:13;;;;;;;49.17;46.55;;;;;;;6.74;66.17;101645.75;5028182;28;20099;-77
2024/01/07 00:21:39;;;;;;;40.88;38.85;;;;;;;6.72;66.53;101647.78;5020151;28;20053;-74
2024/01/07 00:24:04;;;;;;;42.28;39.97;;;;;;;6.71;66.47;101655.03;5011196;28;20099;-75
2024/01/07 00:26:30;;;;;;;49.58;46.90;;;;;;;6.71;66.14;101646.16;5009628;28;20054;-77
2024/01/07 00:28:55;;;;;;;42.33;40.22;;;;;;;6.69;66.20;101649.00;5015963;28;20121;-75
2024/01/07 00:31:20;;;;;;;43.72;41.33;;;;;;;6.69;66.22;101648.19;5018093;28;20404;-74
2024/01/07 00:33:46;;;;;;;47.00;43.72;;;;;;;6.70;66.37;101657.88;5014086;28;20029;-75
2024/01/07 00:36:11;;;;;;;44.17;41.95;;;;;;;6.69;66.07;101657.06;5020817;28;20049;-75
2024/01/07 00:38:37;;;;;;;47.78;45.08;;;;;;;6.69;66.22;101658.94;5004831;28;20084;-75
2024/01/07 00:41:02;;;;;;;43.55;41.15;;;;;;;6.69;66.28;101659.75;5014529;28;20099;-75
2024/01/07 00:43:27;;;;;;;45.70;42.65;;;;;;;6.69;66.25;101662.44;5012316;28;20473;-75
2024/01/07 00:45:53;;;;;;;42.97;40.88;;;;;;;6.69;66.18;101665.13;5031135;28;20273;-75
2024/01/07 00:48:18;;;;;;;51.88;48.47;;;;;;;6.68;66.16;101665.34;5011068;28;20057;-74
2024/01/07 00:50:43;;;;;;;47.22;44.67;;;;;;;6.67;66.05;101663.66;5025468;28;20034;-75
2024/01/07 00:53:09;;;;;;;42.42;40.35;;;;;;;6.66;66.30;101664.69;5015391;28;20117;-74
2024/01/07 00:55:37;;;;;;;41.85;39.83;;;;;;;6.66;66.16;101670.06;5011722;28;20041;-78
2024/01/07 00:58:03;;;;;;;45.28;42.90;;;;;;;6.66;66.15;101667.38;5021345;28;20052;-75
2024/01/07 01:00:29;;;;;;;47.22;44.55;;;;;;;6.66;66.40;101672.75;5019942;28;20046;-75
2024/01/07 01:02:55;;;;;;;43.75;41.40;;;;;;;6.66;66.35;101675.44;5022374;28;20029;-75
2024/01/07 01:05:20;;;;;;;41.33;39.33;;;;;;;6.65;66.24;101679.97;5025050;28;20384;-75
2024/01/07 01:07:46;;;;;;;51.15;47.67;;;;;;;6.65;66.50;101671.94;5012756;28;20381;-75
2024/01/07 01:10:11;;;;;;;44.28;41.92;;;;;;;6.65;66.23;101674.59;5023840;28;20033;-74
2024/01/07 01:12:36;;;;;;;46.70;44.30;;;;;;;6.66;66.58;101686.16;5026639;28;20454;-75
2024/01/07 01:15:02;;;;;;;52.00;48.42;;;;;;;6.66;66.53;101683.50;5015461;28;20048;-74
2024/01/07 01:17:27;;;;;;;49.40;46.03;;;;;;;6.66;66.32;101686.16;5015874;28;20037;-74
2024/01/07 01:19:53;;;;;;;45.25;43.00;;;;;;;6.66;66.19;101686.16;4994958;28;20037;-74
2024/01/07 01:22:18;;;;;;;45.22;42.60;;;;;;;6.64;66.33;101690.91;5013215;28;20034;-73
2024/01/07 01:24:45;;;;;;;48.05;45.33;;;;;;;6.65;66.16;101695.22;5021537;28;20658;-74
2024/01/07 01:27:12;;;;;;;47.60;44.97;;;;;;;6.61;66.23;101685.91;5021270;28;20042;-74
2024/01/07 01:29:37;;;;;;;51.78;48.30;;;;;;;6.60;66.22;101700.34;5023740;28;20034;-74
2024/01/07 01:32:03;;;;;;;47.85;45.10;;;;;;;6.57;66.19;101695.38;5054610;28;20063;-74
2024/01/07 01:34:28;;;;;;;44.08;41.97;;;;;;;6.56;66.04;101702.59;5026996;28;20034;-74
2024/01/07 01:36:53;;;;;;;46.47;43.58;;;;;;;6.54;66.07;101696.59;5021109;28;20429;-74
2024/01/07 01:39:19;;;;;;;42.42;40.42;;;;;;;6.53;66.37;101697.63;5010947;28;20042;-75
2024/01/07 01:41:44;;;;;;;47.28;44.60;;;;;;;6.53;66.32;101710.19;5020148;28;20384;-75
2024/01/07 01:44:10;;;;;;;47.42;44.80;;;;;;;6.53;65.93;101707.50;5019380;28;20037;-75
2024/01/07 01:46:35;;;;;;;48.97;45.63;;;;;;;6.50;66.15;101714.09;5016087;28;20096;-75
2024/01/07 01:49:01;;;;;;;42.70;40.35;;;;;;;6.49;66.33;101720.50;5024728;28;20032;-75
2024/01/07 01:51:27;;;;;;;50.88;47.55;;;;;;;6.48;66.30;101722.34;5025722;28;20088;-75
2024/01/07 01:53:54;;;;;;;50.22;47.08;;;;;;;6.48;66.26;101722.34;5019682;28;20551;-74
2024/01/07 01:56:20;;;;;;;44.97;42.55;;;;;;;6.49;66.12;101731.22;5016551;28;20398;-75
2024/01/07 01:58:47;;;;;;;44.20;41.80;;;;;;;6.45;65.78;101725.44;5011416;28;20080;-74
2024/01/07 02:01:13;;;;;;;44.15;41.95;;;;;;;6.44;66.15;101725.59;5019413;28;20038;-75
2024/01/07 02:03:39;;;;;;;49.10;45.78;;;;;;;6.42;66.26;101731.16;5037069;28;20049;-74
2024/01/07 02:06:05;;;;;;;52.00;48.30;;;;;;;6.43;66.18;101724.78;5012336;28;20041;-74
2024/01/07 02:08:31;;;;;;;44.97;42.88;;;;;;;6.42;66.03;101724.97;5016178;28;20091;-74
2024/01/07 02:10:56;;;;;;;54.80;50.97;;;;;;;6.41;66.17;101732.19;5010400;28;20042;-75
2024/01/07 02:13:22;;;;;;;46.38;43.28;;;;;;;6.41;66.05;101734.88;5014018;28;20041;-74
2024/01/07 02:15:47;;;;;;;46.83;43.70;;;;;;;6.39;66.12;101733.41;5003599;28;20480;-74
2024/01/07 02:18:13;;;;;;;42.42;40.38;;;;;;;6.38;66.07;101737.13;5025037;28;20061;-74
2024/01/07 02:20:38;;;;;;;48.47;45.45;;;;;;;6.36;65.94;101744.53;5022557;28;20046;-75
2024/01/07 02:23:04;;;;;;;47.58;44.65;;;;;;;6.35;66.04;101742.84;5025310;28;20042;-75
2024/01/07 02:25:35;;;;;;;39.75;37.65;;;;;;;6.33;66.05;101745.72;5011868;28;20111;-75
2024/01/07 02:28:00;;;;;;;48.53;45.20;;;;;;;6.34;66.46;101744.69;5021821;28;20406;-74
2024/01/07 02:30:27;;;;;;;45.97;43.15;;;;;;;6.34;66.15;101751.91;5017832;28;20038;-76
2024/01/07 02:32:52;;;;;;;52.40;49.10;;;;;;;6.35;66.42;101748.22;5012711;28;20033;-75
2024/01/07 02:35:18;;;;;;;50.92;47.22;;;;;;;6.34;66.18;101747.38;5023991;28;20084;-75
2024/01/07 02:37:43;;;;;;;41.67;39.42;;;;;;;6.34;66.29;101749.25;5024677;28;20037;-74
2024/01/07 02:40:09;;;;;;;42.10;39.25;;;;;;;6.33;66.18;101751.09;5023713;28;20038;-74
2024/01/07 02:42:34;;;;;;;41.92;39.92;;;;;;;6.34;66.60;101746.56;4998557;28;20359;-75
2024/01/07 02:45:00;;;;;;;50.35;46.30;;;;;;;6.36;66.53;101755.25;5012115;28;20056;-74
2024/01/07 02:47:25;;;;;;;44.55;42.15;;;;;;;6.36;66.41;101745.34;5029088;28;20497;-75
2024/01/07 02:49:51;;;;;;;45.10;42.78;;;;;;;6.37;66.42;101751.53;5008663;28;20038;-75
2024/01/07 02:52:16;;;;;;;47.00;44.60;;;;;;;6.37;66.80;101757.72;5024198;28;20029;-73
2024/01/07 02:54:42;;;;;;;49.08;45.78;;;;;;;6.39;66.90;101762.91;5031007;28;20048;-74
2024/01/07 02:57:07;;;;;;;46.72;43.83;;;;;;;6.40;66.59;101760.06;5024456;28;20141;-74
2024/01/07 02:59:33;;;;;;;45.08;42.42;;;;;;;6.38;66.64;101758.59;5012170;28;20045;-74
2024/01/07 03:01:58;;;;;;;48.45;45.10;;;;;;;6.38;66.71;101766.63;5024164;28;20030;-74
2024/01/07 03:04:24;;;;;;;45.35;41.80;;;;;;;6.38;66.51;101762.09;5022141;28;20038;-74
2024/01/07 03:06:49;;;;;;;43.95;41.35;;;;;;;6.37;66.61;101765.78;5013611;28;20120;-74
2024/01/07 03:09:14;;;;;;;43.70;41.13;;;;;;;6.39;66.34;101768.28;5018271;28;20095;-74
2024/01/07 03:11:43;;;;;;;46.55;44.25;;;;;;;6.38;66.51;101770.16;5028707;28;20040;-75
2024/01/07 03:14:09;;;;;;;46.88;44.00;;;;;;;6.37;66.48;101773.00;5014334;28;20288;-75
2024/01/07 03:16:35;;;;;;;44.38;42.22;;;;;;;6.38;66.49;101777.38;5014335;28;20026;-75
2024/01/07 03:19:01;;;;;;;46.35;43.65;;;;;;;6.38;66.57;101775.50;5015068;28;20042;-75
2024/01/07 03:21:27;;;;;;;49.90;46.10;;;;;;;6.39;66.46;101784.38;5020378;28;20034;-74
2024/01/07 03:23:52;;;;;;;41.72;39.63;;;;;;;6.39;66.41;101789.75;5017980;28;20449;-74
2024/01/07 03:26:19;;;;;;;47.60;44.28;;;;;;;6.40;66.45;101786.91;5014715;28;20061;-74
2024/01/07 03:28:44;;;;;;;47.10;44.42;;;;;;;6.41;66.75;101795.78;5014215;28;20034;-74
2024/01/07 03:31:12;;;;;;;45.00;42.50;;;;;;;6.41;66.50;101787.72;5016475;28;20034;-74
2024/01/07 03:33:38;;;;;;;45.45;43.10;;;;;;;6.42;66.64;101794.75;5014554;28;20109;-75
2024/01/07 03:36:12;;;;;;;47.47;44.70;;;;;;;6.40;66.53;101797.63;5024518;28;20132;-74
2024/01/07 03:38:39;;;;;;;41.38;39.30;;;;;;;6.41;66.92;101801.13;5027888;28;20055;-75
2024/01/07 03:41:05;;;;;;;48.42;45.55;;;;;;;6.39;66.49;101795.94;5026675;28;20029;-74
2024/01/07 03:43:31;;;;;;;41.90;39.42;;;;;;;6.38;66.76;101794.28;5024448;28;20408;-75
2024/01/07 03:45:56;;;;;;;43.42;41.25;;;;;;;6.39;66.66;101800.50;5028214;28;20025;-75
2024/01/07 03:48:22;;;;;;;50.13;46.67;;;;;;;6.39;66.80;101797.81;5023650;28;20540;-75
2024/01/07 03:50:47;;;;;;;39.80;37.83;;;;;;;6.41;66.63;101807.34;5017538;28;20029;-74
2024/01/07 03:53:13;;;;;;;42.92;40.80;;;;;;;6.40;66.51;101808.38;5026863;28;20037;-74
2024/01/07 03:55:39;;;;;;;45.88;42.88;;;;;;;6.40;66.56;101816.41;5031633;28;20485;-74
2024/01/07 03:58:05;;;;;;;53.85;49.83;;;;;;;6.39;66.57;101811.22;5020340;28;20034;-74
2024/01/07 04:00:31;;;;;;;46.72;43.92;;;;;;;6.37;66.15;101824.81;5025681;28;20117;-75
2024/01/07 04:02:56;;;;;;;42.13;39.83;;;;;;;6.35;66.12;101824.19;5010195;28;20091;-74
2024/01/07 04:05:21;;;;;;;51.28;47.63;;;;;;;6.32;66.46;101821.88;5027145;28;20038;-75
2024/01/07 04:07:47;;;;;;;50.72;46.83;;;;;;;6.30;66.33;101815.88;5020303;28;20474;-75
2024/01/07 04:10:12;;;;;;;46.78;44.00;;;;;;;6.28;66.15;101823.28;5016973;28;20049;-75
2024/01/07 04:12:38;;;;;;;43.90;41.22;;;;;;;6.25;66.32;101827.19;5029203;28;20095;-74
2024/01/07 04:15:04;;;;;;;41.30;39.10;;;;;;;6.24;66.30;101827.34;5001280;28;20042;-74
2024/01/07 04:17:29;;;;;;;45.17;41.90;;;;;;;6.23;66.20;101831.06;5012784;28;20030;-74
2024/01/07 04:19:55;;;;;;;54.10;49.15;;;;;;;6.21;66.41;101827.72;5025321;28;20082;-78
2024/01/07 04:22:21;;;;;;;45.17;41.90;;;;;;;6.21;66.35;101833.09;5014232;28;20025;-76
2024/01/07 04:24:46;;;;;;;45.00;41.90;;;;;;;6.19;66.28;101835.13;5017788;28;20026;-75
2024/01/07 04:27:12;;;;;;;46.42;43.33;;;;;;;6.19;66.37;101835.13;5009912;28;20061;-75
2024/01/07 04:29:37;;;;;;;41.20;38.72;;;;;;;6.18;66.28;101839.66;5024606;28;20029;-75
2024/01/07 04:32:03;;;;;;;42.67;40.15;;;;;;;6.19;66.16;101840.50;5020254;28;20048;-74
2024/01/07 04:34:28;;;;;;;40.08;38.05;;;;;;;6.18;66.70;101838.84;5015017;28;20378;-75
2024/01/07 04:36:54;;;;;;;44.17;41.53;;;;;;;6.19;66.26;101851.22;5035553;28;20033;-75
2024/01/07 04:39:19;;;;;;;47.03;43.70;;;;;;;6.17;66.31;101851.41;5017840;28;20037;-74
2024/01/07 04:41:44;;;;;;;47.95;44.35;;;;;;;6.17;66.45;101847.88;5030805;28;20065;-74
2024/01/07 04:44:10;;;;;;;48.35;45.22;;;;;;;6.17;66.48;101854.09;5024680;28;20128;-74
2024/01/07 04:46:39;;;;;;;42.05;39.75;;;;;;;6.18;66.55;101852.25;5031121;28;20041;-75
2024/01/07 04:49:05;;;;;;;46.00;43.63;;;;;;;6.17;66.51;101858.63;5014525;28;20030;-75
2024/01/07 04:51:31;;;;;;;46.97;43.00;;;;;;;6.17;66.46;101859.44;5013293;28;20052;-74
2024/01/07 04:53:56;;;;;;;43.25;40.92;;;;;;;6.17;66.89;101858.63;5024523;28;20026;-74
2024/01/07 04:56:22;;;;;;;43.55;41.40;;;;;;;6.17;66.27;101866.66;5034828;28;20038;-74
2024/01/07 04:58:47;;;;;;;49.55;45.80;;;;;;;6.17;66.25;101864.81;5021634;28;20120;-74
2024/01/07 05:01:12;;;;;;;47.75;44.63;;;;;;;6.18;66.39;101876.41;5019227;28;20100;-74
2024/01/07 05:03:38;;;;;;;45.42;42.85;;;;;;;6.16;66.20;101871.22;5009919;28;20033;-75
2024/01/07 05:06:04;;;;;;;50.55;46.80;;;;;;;6.16;66.07;101878.44;5012674;28;20474;-74
2024/01/07 05:08:29;;;;;;;40.22;38.00;;;;;;;6.14;66.28;101881.28;5012065;28;20026;-74
2024/01/07 05:10:55;;;;;;;48.30;45.30;;;;;;;6.12;66.28;101869.91;5012348;28;20041;-74
2024/01/07 05:13:20;;;;;;;52.05;47.80;;;;;;;6.09;66.62;101867.59;5012699;28;20428;-75
2024/01/07 05:15:46;;;;;;;45.28;43.15;;;;;;;6.07;66.25;101883.03;5019092;28;20045;-74
2024/01/07 05:18:12;;;;;;;42.35;40.00;;;;;;;6.06;66.54;101887.56;5012998;28;20042;-74
2024/01/07 05:20:37;;;;;;;50.95;47.22;;;;;;;6.06;66.54;101889.44;5019041;28;20034;-74
2024/01/07 05:23:03;;;;;;;43.90;41.38;;;;;;;6.03;66.27;101884.44;5008600;28;20037;-76
2024/01/07 05:25:29;;;;;;;43.83;41.10;;;;;;;6.01;66.62;101895.34;5015637;28;20057;-74
2024/01/07 05:27:54;;;;;;;40.30;37.80;;;;;;;6.01;66.24;101898.03;5015075;28;20103;-74
2024/01/07 05:30:20;;;;;;;46.08;42.90;;;;;;;6.00;66.11;101898.22;5015076;28;20041;-74
2024/01/07 05:32:45;;;;;;;43.47;40.85;;;;;;;6.00;66.09;101907.09;5019430;28;20138;-74
2024/01/07 05:35:10;;;;;;;44.60;41.78;;;;;;;6.00;66.55;101907.09;5007650;28;20049;-74
2024/01/07 05:37:36;;;;;;;40.58;38.55;;;;;;;6.01;66.39;101903.38;5015695;28;20049;-74
2024/01/07 05:40:02;;;;;;;45.25;41.95;;;;;;;6.01;65.98;101913.28;5030836;28;20056;-74
2024/01/07 05:42:27;;;;;;;41.85;39.63;;;;;;;6.02;66.64;101920.31;5012350;28;20033;-75
2024/01/07 05:44:53;;;;;;;42.97;40.80;;;;;;;6.02;66.41;101920.31;5014871;28;20067;-74
2024/01/07 05:47:18;;;;;;;41.78;39.65;;;;;;;6.02;66.61;101918.50;5008569;28;20026;-75
2024/01/07 05:49:44;;;;;;;42.30;40.30;;;;;;;6.01;66.62;101916.81;5016429;28;20095;-75
2024/01/07 05:52:09;;;;;;;43.65;41.28;;;;;;;6.01;66.56;101924.84;5018311;28;20111;-74
2024/01/07 05:54:34;;;;;;;41.70;39.50;;;;;;;6.02;66.47;101925.69;5011837;28;20040;-74
2024/01/07 05:57:00;;;;;;;42.10;39.63;;;;;;;6.02;66.62;101939.09;5021529;28;20386;-75
2024/01/07 05:59:25;;;;;;;44.35;41.45;;;;;;;6.03;66.67;101935.41;5015973;28;20034;-74
2024/01/07 06:01:50;;;;;;;50.03;46.72;;;;;;;6.03;66.49;101946.97;5014199;28;20549;-74
2024/01/07 06:04:16;;;;;;;40.08;37.67;;;;;;;6.01;66.57;101942.78;5015301;28;20022;-74
2024/01/07 06:06:41;;;;;;;41.13;38.67;;;;;;;6.01;66.63;101948.16;5019787;28;20533;-75
2024/01/07 06:09:07;;;;;;;45.53;42.53;;;;;;;6.01;66.68;101949.00;5019486;28;20045;-74
2024/01/07 06:11:32;;;;;;;45.25;42.67;;;;;;;6.00;66.43;101952.69;5028946;28;20037;-75
2024/01/07 06:13:58;;;;;;;45.85;43.03;;;;;;;6.01;66.56;101948.16;5016433;28;20057;-74
2024/01/07 06:16:23;;;;;;;48.10;44.28;;;;;;;6.02;66.21;101958.72;5020220;28;20497;-74
2024/01/07 06:18:48;;;;;;;41.42;39.10;;;;;;;6.01;66.24;101957.03;5016344;28;20048;-74
2024/01/07 06:21:14;;;;;;;42.25;39.72;;;;;;;5.97;66.66;101977.22;5011132;28;20038;-77
2024/01/07 06:23:39;;;;;;;43.05;40.35;;;;;;;5.96;66.71;101950.56;5026985;28;20030;-75
2024/01/07 06:26:05;;;;;;;42.33;39.65;;;;;;;5.95;66.58;101968.50;5029345;28;20054;-74
2024/01/07 06:28:33;;;;;;;46.17;42.80;;;;;;;5.95;66.83;101973.88;5031226;28;20072;-75
2024/01/07 06:30:58;;;;;;;46.58;43.67;;;;;;;5.96;66.56;101978.22;5024661;28;20116;-74
2024/01/07 06:33:23;;;;;;;42.30;40.03;;;;;;;5.96;66.73;101983.56;5007945;28;20120;-74
2024/01/07 06:35:49;;;;;;;44.00;41.42;;;;;;;5.95;66.45;101987.28;5021093;28;20045;-74
2024/01/07 06:38:15;;;;;;;42.10;39.78;;;;;;;5.95;66.57;101987.28;5025890;28;20478;-74
2024/01/07 06:40:40;;;;;;;42.33;40.13;;;;;;;5.95;66.61;101991.81;5027318;28;20137;-74
2024/01/07 06:43:06;;;;;;;39.88;37.88;;;;;;;5.95;66.53;101992.66;5010594;28;20042;-74
2024/01/07 06:45:32;;;;;;;43.15;40.83;;;;;;;5.97;66.37;102003.16;5018645;28;20401;-75
2024/01/07 06:47:57;;;;;;;43.72;41.30;;;;;;;5.96;66.68;102010.38;5018206;28;20381;-74
2024/01/07 06:50:23;;;;;;;40.88;38.45;;;;;;;5.97;66.78;102001.34;5012785;28;20044;-74
2024/01/07 06:52:49;;;;;;;39.50;37.50;;;;;;;5.98;66.57;102011.03;5019468;28;20034;-74
2024/01/07 06:55:14;;;;;;;41.28;38.72;;;;;;;5.99;66.58;102017.25;5029352;28;20034;-74
2024/01/07 06:57:40;;;;;;;50.10;46.13;;;;;;;5.97;66.84;102012.06;5026846;28;20041;-74
2024/01/07 07:00:06;;;;;;;45.17;42.05;;;;;;;5.98;66.70;102015.59;5034892;28;20038;-75
2024/01/07 07:02:31;;;;;;;46.83;43.88;;;;;;;5.95;66.26;102022.16;5022427;28;20065;-74
2024/01/07 07:04:57;;;;;;;42.30;40.10;;;;;;;5.93;66.21;102018.78;5017134;28;20034;-74
2024/01/07 07:07:22;;;;;;;45.83;43.10;;;;;;;5.91;66.40;102028.84;5017058;28;20030;-74
2024/01/07 07:09:47;;;;;;;39.92;37.83;;;;;;;5.90;66.03;102026.34;5017360;28;20033;-74
2024/01/07 07:12:13;;;;;;;45.60;43.05;;;;;;;5.88;66.38;102023.00;5003080;28;20048;-74
2024/01/07 07:14:38;;;;;;;39.10;37.13;;;;;;;5.88;66.37;102031.06;5015479;28;20033;-74
2024/01/07 07:17:04;;;;;;;42.92;40.25;;;;;;;5.87;66.56;102030.19;5020653;28;20034;-74
2024/01/07 07:19:29;;;;;;;47.20;43.80;;;;;;;5.88;66.61;102039.94;5003296;28;20037;-74
2024/01/07 07:21:55;;;;;;;39.47;37.58;;;;;;;5.88;66.21;102041.78;5019420;28;20061;-74
2024/01/07 07:24:20;;;;;;;44.03;41.20;;;;;;;5.86;66.19;102037.41;5017761;28;20468;-75
2024/01/07 07:26:45;;;;;;;42.63;40.20;;;;;;;5.86;66.46;102050.00;5001152;28;20406;-74
2024/01/07 07:29:11;;;;;;;41.80;38.88;;;;;;;5.86;66.33;102052.69;5025513;28;20176;-73
2024/01/07 07:31:37;;;;;;;48.38;44.65;;;;;;;5.87;66.55;102054.34;5018744;28;20033;-74
2024/01/07 07:34:05;;;;;;;43.20;40.33;;;;;;;5.85;66.07;102057.22;5013253;28;20037;-74
2024/01/07 07:36:31;;;;;;;38.63;36.60;;;;;;;5.83;65.74;102061.91;5018981;28;20036;-74
2024/01/07 07:38:56;;;;;;;46.78;43.47;;;;;;;5.79;66.18;102063.28;5017355;28;20120;-74
2024/01/07 07:41:22;;;;;;;47.15;43.33;;;;;;;5.78;66.00;102061.63;5014639;28;20123;-75
2024/01/07 07:43:47;;;;;;;43.65;40.83;;;;;;;5.78;66.16;102074.19;5033273;28;20406;-74
2024/01/07 07:46:13;;;;;;;46.70;43.45;;;;;;;5.76;66.17;102082.41;5027341;28;20393;-74
2024/01/07 07:48:39;;;;;;;45.67;42.78;;;;;;;5.75;65.91;102086.13;5029385;28;20092;-74
2024/01/07 07:51:04;;;;;;;42.05;39.42;;;;;;;5.72;66.12;102093.66;5019707;28;20537;-74
2024/01/07 07:53:30;;;;;;;42.42;39.17;;;;;;;5.69;65.69;102091.34;5020916;28;20512;-74
2024/01/07 07:55:55;;;;;;;44.22;41.28;;;;;;;5.66;65.78;102092.53;5018708;28;20124;-75
2024/01/07 07:58:21;;;;;;;42.35;39.80;;;;;;;5.64;65.96;102095.41;5020858;28;20049;-74
2024/01/07 08:00:46;;;;;;;39.38;37.30;;;;;;;5.66;66.36;102099.75;5010423;28;20528;-74
2024/01/07 08:03:12;;;;;;;42.38;39.75;;;;;;;5.66;66.30;102113.16;5018031;28;20037;-74
2024/01/07 08:05:38;;;;;;;42.00;39.33;;;;;;;5.67;66.23;102110.31;5010615;28;20088;-74
2024/01/07 08:08:04;;;;;;;40.22;38.20;;;;;;;5.67;66.14;102121.03;5013853;28;20159;-74
2024/01/07 08:10:31;;;;;;;46.45;43.08;;;;;;;5.65;65.88;102120.34;5014901;28;20045;-73
2024/01/07 08:12:57;;;;;;;37.78;35.58;;;;;;;5.63;66.00;102120.53;5028055;28;20112;-74
2024/01/07 08:15:22;;;;;;;44.13;40.97;;;;;;;5.61;65.71;102116.34;5013734;28;20347;-74
2024/01/07 08:17:48;;;;;;;42.05;39.35;;;;;;;5.57;65.78;102117.72;5022477;28;20493;-74
2024/01/07 08:20:13;;;;;;;47.95;43.92;;;;;;;5.56;65.80;102122.22;5037597;28;20053;-73
2024/01/07 08:22:39;;;;;;;37.30;34.70;;;;;;;5.56;65.78;102132.13;5011663;28;20033;-74
2024/01/07 08:25:06;;;;;;;37.13;35.05;;;;;;;5.56;65.92;102134.81;5030084;28;20042;-74
2024/01/07 08:27:32;;;;;;;41.85;39.25;;;;;;;5.56;65.49;102137.50;5011311;28;20041;-74
2024/01/07 08:29:57;;;;;;;46.42;43.10;;;;;;;5.53;65.73;102138.66;5017397;28;20039;-74
2024/01/07 08:32:23;;;;;;;40.88;38.40;;;;;;;5.53;65.71;102149.38;5013060;28;20037;-74
2024/01/07 08:34:49;;;;;;;38.55;36.33;;;;;;;5.52;65.80;102150.41;5013270;28;20116;-75
2024/01/07 08:37:14;;;;;;;45.80;42.65;;;;;;;5.51;65.78;102147.91;5011356;28;20034;-74
2024/01/07 08:39:40;;;;;;;44.22;37.63;;;;;;;5.50;65.70;102155.09;5010441;28;20537;-74
2024/01/07 08:42:05;;;;;;;42.28;39.72;;;;;;;5.50;65.82;102154.28;5017267;28;20397;-74
2024/01/07 08:44:31;;;;;;;45.97;43.10;;;;;;;5.51;65.87;102158.63;5012766;28;20533;-75
2024/01/07 08:46:56;;;;;;;46.67;43.47;;;;;;;5.50;65.71;102159.63;5014033;28;20029;-74
2024/01/07 08:49:21;;;;;;;42.72;40.22;;;;;;;5.48;66.08;102167.00;5023494;28;20026;-75
2024/01/07 08:51:47;;;;;;;45.70;42.22;;;;;;;5.47;65.71;102170.69;5014013;28;20481;-75
2024/01/07 08:54:12;;;;;;;36.63;34.75;;;;;;;5.47;65.53;102170.69;5018676;28;20030;-75
2024/01/07 08:56:39;;;;;;;41.70;38.75;;;;;;;5.47;65.59;102181.41;5014150;28;20545;-74
2024/01/07 08:59:05;;;;;;;38.97;36.97;;;;;;;5.46;65.85;102185.09;5011396;28;20026;-74
2024/01/07 09:01:30;;;;;;;41.88;39.15;;;;;;;5.45;65.88;102186.97;5018093;28;20095;-75
2024/01/07 09:03:55;;;;;;;41.65;39.13;;;;;;;5.45;65.38;102192.31;5020225;28;20057;-74
2024/01/07 09:06:21;;;;;;;37.92;35.83;;;;;;;5.42;65.83;102190.81;5014071;28;20083;-74
2024/01/07 09:08:46;;;;;;;44.03;40.33;;;;;;;5.42;65.71;102187.31;5021288;28;20084;-77
2024/01/07 09:11:12;;;;;;;41.60;38.67;;;;;;;5.42;65.65;102198.84;5013636;28;20025;-73
2024/01/07 09:13:38;;;;;;;38.80;36.40;;;;;;;5.42;65.82;102192.66;5016299;28;20029;-74
2024/01/07 09:16:04;;;;;;;37.53;35.08;;;;;;;5.41;65.65;102199.03;5025665;28;20044;-74
2024/01/07 09:18:30;;;;;;;41.22;38.58;;;;;;;5.41;65.98;102207.06;5013341;28;20136;-74
2024/01/07 09:20:56;;;;;;;37.00;34.72;;;;;;;5.41;65.73;102207.06;5014294;28;20022;-73
2024/01/07 09:23:22;;;;;;;41.53;39.13;;;;;;;5.41;65.96;102210.56;5015792;28;20036;-74
2024/01/07 09:25:47;;;;;;;39.53;37.60;;;;;;;5.44;65.86;102214.75;5023763;28;20521;-74
2024/01/07 09:28:13;;;;;;;41.67;38.92;;;;;;;5.47;66.10;102222.47;5018524;28;20073;-74
2024/01/07 09:30:38;;;;;;;41.88;38.75;;;;;;;5.46;66.00;102223.44;5026643;28;20046;-74
2024/01/07 09:33:04;;;;;;;41.90;39.25;;;;;;;5.46;65.84;102226.13;5024672;28;20060;-73
2024/01/07 09:35:29;;;;;;;38.22;35.90;;;;;;;5.43;66.18;102234.53;5014393;28;20445;-73
2024/01/07 09:37:55;;;;;;;39.42;37.08;;;;;;;5.42;65.86;102235.53;5016716;28;20464;-73
2024/01/07 09:40:20;;;;;;;40.85;38.53;;;;;;;5.40;65.60;102234.88;5013659;28;20033;-74
2024/01/07 09:42:46;;;;;;;38.58;36.40;;;;;;;5.38;65.58;102231.53;4997542;28;20037;-74
2024/01/07 09:45:13;;;;;;;43.15;40.30;;;;;;;5.37;65.39;102244.09;5020207;28;20478;-74
2024/01/07 09:47:43;;;;;;;43.15;40.25;;;;;;;5.35;65.73;102247.94;5032408;28;20156;-74
2024/01/07 09:50:10;;;;;;;38.17;36.08;;;;;;;5.32;65.73;102245.63;5014449;28;20083;-73
2024/01/07 09:52:37;;;;;;;41.47;38.78;;;;;;;5.31;65.52;102247.44;5025528;28;20965;-74
2024/01/07 09:55:06;;;;;;;38.45;35.70;;;;;;;5.28;65.47;102261.19;5044887;28;20398;-74
2024/01/07 09:57:31;;;;;;;39.55;36.90;;;;;;;5.27;65.38;102266.72;5018629;28;20026;-74
2024/01/07 09:59:57;;;;;;;34.60;32.60;;;;;;;5.24;65.64;102264.38;5022381;28;20037;-74
2024/01/07 10:02:23;;;;;;;40.22;38.08;;;;;;;5.24;65.49;102280.44;5012998;28;20084;-74
2024/01/07 10:04:49;;;;;;;40.78;38.72;;;;;;;5.26;65.49;102278.44;5016017;28;20102;-75
2024/01/07 10:07:15;;;;;;;36.70;34.90;;;;;;;5.25;65.69;102279.47;5013836;28;20025;-74
2024/01/07 10:09:44;;;;;;;47.20;43.78;;;;;;;5.27;65.96;102278.28;5014959;28;20088;-75
2024/01/07 10:12:12;;;;;;;35.63;33.72;;;;;;;5.29;66.04;102292.34;5012833;28;20042;-74
2024/01/07 10:14:39;;;;;;;41.15;38.28;;;;;;;5.30;65.55;102288.66;5009424;28;20458;-74
2024/01/07 10:17:14;;;;;;;37.05;34.58;;;;;;;5.28;65.51;102287.97;5012272;28;20493;-74
2024/01/07 10:19:39;;;;;;;42.40;39.90;;;;;;;5.28;65.70;102287.16;5010784;28;20033;-73
2024/01/07 10:22:05;;;;;;;37.55;34.92;;;;;;;5.27;65.35;102283.63;5027033;28;20406;-73
2024/01/07 10:24:38;;;;;;;38.05;35.90;;;;;;;5.29;65.56;102288.81;5028674;28;20104;-78
2024/01/07 10:27:04;;;;;;;36.17;34.25;;;;;;;5.28;65.78;102292.50;5040742;28;20076;-74
2024/01/07 10:29:30;;;;;;;39.88;37.78;;;;;;;5.28;65.68;102293.34;5034278;28;20036;-73
2024/01/07 10:31:57;;;;;;;40.08;37.70;;;;;;;5.26;65.24;102289.97;5013792;28;20046;-74
2024/01/07 10:34:24;;;;;;;38.47;36.38;;;;;;;5.26;65.33;102297.19;5035531;28;20025;-74
2024/01/07 10:36:52;;;;;;;40.72;38.10;;;;;;;5.25;65.47;102291.00;5029832;28;20033;-74
2024/01/07 10:39:19;;;;;;;39.22;36.85;;;;;;;5.25;65.64;102296.34;5032841;28;20034;-75
2024/01/07 10:41:46;;;;;;;37.78;35.53;;;;;;;5.24;65.42;102299.19;5011043;28;20121;-75
2024/01/07 10:44:12;;;;;;;33.40;31.70;;;;;;;5.23;65.70;102301.03;5028346;28;20496;-74
2024/01/07 10:46:39;;;;;;;39.30;36.85;;;;;;;5.25;65.58;102295.53;5039288;28;20033;-74
2024/01/07 10:49:13;;;;;;;38.20;35.90;;;;;;;5.25;65.41;102301.72;5034738;28;20061;-74
2024/01/07 10:51:40;;;;;;;37.10;35.03;;;;;;;5.25;65.61;102300.88;5039758;28;20033;-74
2024/01/07 10:54:07;;;;;;;38.65;36.38;;;;;;;5.25;65.81;102301.72;5029605;28;20351;-74
2024/01/07 10:56:45;;;;;;;32.55;30.73;;;;;;;5.24;65.66;102297.38;5025536;28;20041;-74
2024/01/07 10:59:10;;;;;;;42.47;39.75;;;;;;;5.24;65.18;102313.44;5060648;28;20367;-74
2024/01/07 11:01:37;;;;;;;35.55;33.60;;;;;;;5.19;65.09;102308.59;5029285;28;20068;-73
2024/01/07 11:04:14;;;;;;;39.13;36.78;;;;;;;5.19;65.45;102311.28;5031520;28;20116;-74
2024/01/07 11:06:54;;;;;;;40.88;38.15;;;;;;;5.15;65.08;102312.59;5024545;28;20028;-74
2024/01/07 11:09:33;;;;;;;41.83;39.33;;;;;;;5.12;65.54;102315.63;5021597;28;20037;-74
2024/01/07 11:11:59;;;;;;;;;;;;;;;5.09;65.46;102315.97;5015067;28;20068;-74